Time;durP1;ratioP1;P1;durP2;ratioP2;P2;SDS_P1;SDS_P2;PMS_P1;PMS_P2;Temp;Humidity;BMP_temperature;BMP_pressure;BME280_temperature;BME280_humidity;BME280_pressure;Samples;Min_cycle;Max_cycle;Signal;HPM_P1;HPM_P2
2023/04/22 00:02:15;;;;;;;7.53;6.60;;;;;;;13.82;70.50;97654.31;7387037;19;19939;-76
2023/04/22 00:04:45;;;;;;;7.65;6.07;;;;;;;13.82;70.57;97649.81;7381400;19;19921;-76
2023/04/22 00:07:13;;;;;;;8.13;6.07;;;;;;;13.83;70.26;97648.81;7388936;19;19922;-76
2023/04/22 00:09:40;;;;;;;8.43;7.53;;;;;;;13.81;70.39;97650.00;7386285;19;20260;-76
2023/04/22 00:12:08;;;;;;;8.88;6.15;;;;;;;13.83;70.13;97653.31;7389141;19;19930;-76
2023/04/22 00:14:34;;;;;;;8.38;6.18;;;;;;;13.81;70.52;97650.00;7388958;19;20402;-76
2023/04/22 00:17:01;;;;;;;8.40;6.70;;;;;;;13.80;70.55;97643.06;7387061;19;19939;-76
2023/04/22 00:22:10;;;;;;;5.90;5.25;;;;;;;13.73;70.44;97642.19;7333398;19;19947;-74
2023/04/22 00:24:37;;;;;;;8.60;5.70;;;;;;;13.70;70.37;97642.56;7381529;19;19936;-74
2023/04/22 00:27:04;;;;;;;8.18;6.30;;;;;;;13.71;70.34;97644.22;7389700;19;19925;-75
2023/04/22 00:29:31;;;;;;;7.10;5.78;;;;;;;13.69;70.13;97641.75;7391710;19;19925;-75
2023/04/22 00:31:57;;;;;;;8.68;5.90;;;;;;;13.68;70.07;97641.94;7384422;19;19930;-75
2023/04/22 00:34:24;;;;;;;8.43;6.75;;;;;;;13.67;70.36;97641.13;7390307;19;19949;-75
2023/04/22 00:36:51;;;;;;;7.45;5.70;;;;;;;13.67;70.48;97638.47;7386907;19;19934;-75
2023/04/22 00:39:18;;;;;;;7.55;6.10;;;;;;;13.67;70.34;97642.97;7380876;19;19922;-75
2023/04/22 00:41:45;;;;;;;7.32;6.05;;;;;;;13.64;70.67;97638.00;7387352;19;19918;-75
2023/04/22 00:44:12;;;;;;;5.75;5.13;;;;;;;13.61;70.21;97633.91;7393525;19;19931;-75
2023/04/22 00:46:39;;;;;;;6.90;5.55;;;;;;;13.62;70.50;97643.53;7394800;19;19922;-75
2023/04/22 00:49:08;;;;;;;7.93;6.43;;;;;;;13.57;70.16;97637.97;7389674;19;19918;-75
2023/04/22 00:51:35;;;;;;;6.85;5.68;;;;;;;13.53;70.57;97648.19;7393595;19;19950;-74
2023/04/22 00:54:04;;;;;;;7.03;5.40;;;;;;;13.53;70.67;97650.00;7384711;19;19923;-75
2023/04/22 00:56:32;;;;;;;7.60;5.50;;;;;;;13.48;70.99;97642.63;7392394;19;19919;-75
2023/04/22 00:58:59;;;;;;;6.18;5.50;;;;;;;13.41;71.04;97644.41;7387878;19;19946;-75
2023/04/22 01:01:26;;;;;;;6.80;5.32;;;;;;;13.41;71.23;97641.75;7390284;19;19922;-75
2023/04/22 01:03:53;;;;;;;9.32;5.70;;;;;;;13.37;71.19;97643.13;7390790;19;19906;-75
2023/04/22 01:06:21;;;;;;;6.53;5.10;;;;;;;13.35;71.33;97640.66;7396460;19;20521;-75
2023/04/22 01:08:48;;;;;;;6.90;5.03;;;;;;;13.34;71.39;97646.97;7391376;19;19926;-75
2023/04/22 01:11:15;;;;;;;6.05;5.18;;;;;;;13.30;71.50;97644.91;7385737;19;19926;-75
2023/04/22 01:13:41;;;;;;;8.38;5.70;;;;;;;13.29;71.69;97640.59;7391440;19;19953;-75
2023/04/22 01:16:09;;;;;;;7.00;6.28;;;;;;;13.24;71.79;97635.81;7393115;19;19918;-75
2023/04/22 01:18:35;;;;;;;8.10;6.13;;;;;;;13.26;71.77;97630.31;7389625;19;19949;-75
2023/04/22 01:21:02;;;;;;;11.20;8.07;;;;;;;13.24;72.16;97630.50;7385677;19;20537;-75
2023/04/22 01:23:29;;;;;;;8.85;7.93;;;;;;;13.26;72.07;97644.47;7393176;19;20440;-75
2023/04/22 01:25:56;;;;;;;7.88;6.00;;;;;;;13.23;72.32;97649.31;7393898;19;19930;-75
2023/04/22 01:28:22;;;;;;;7.10;6.35;;;;;;;13.25;72.26;97639.31;7394765;19;19919;-75
2023/04/22 01:30:49;;;;;;;7.30;5.25;;;;;;;13.23;72.29;97646.66;7388256;19;19922;-75
2023/04/22 01:33:16;;;;;;;9.23;6.55;;;;;;;13.13;72.67;97645.13;7393659;19;19922;-75
2023/04/22 01:35:43;;;;;;;7.07;6.00;;;;;;;13.14;72.48;97638.81;7390351;19;19922;-75
2023/04/22 01:38:11;;;;;;;9.20;8.27;;;;;;;13.17;72.47;97642.94;7376026;19;20290;-75
2023/04/22 01:40:38;;;;;;;6.35;5.30;;;;;;;13.17;72.59;97640.28;7385558;19;19922;-75
2023/04/22 01:43:05;;;;;;;9.02;6.53;;;;;;;13.18;72.35;97639.25;7379530;19;19926;-75
2023/04/22 01:45:32;;;;;;;7.40;5.85;;;;;;;13.14;72.44;97646.78;7385839;19;20238;-75
2023/04/22 01:47:59;;;;;;;7.28;6.38;;;;;;;13.10;72.63;97639.38;7384278;19;20654;-74
2023/04/22 01:50:26;;;;;;;9.07;6.38;;;;;;;13.09;72.61;97645.72;7388008;19;19918;-75
2023/04/22 01:52:53;;;;;;;7.15;6.45;;;;;;;13.11;72.57;97641.84;7383624;19;19936;-74
2023/04/22 01:55:21;;;;;;;8.35;6.07;;;;;;;13.09;72.73;97646.53;7391892;19;19922;-75
2023/04/22 01:57:47;;;;;;;8.65;5.88;;;;;;;13.12;72.71;97648.81;7389925;19;20505;-75
2023/04/22 02:00:14;;;;;;;7.10;6.32;;;;;;;13.15;72.39;97655.56;7383560;19;19918;-74
2023/04/22 02:02:45;;;;;;;7.88;5.95;;;;;;;13.15;72.52;97656.38;7384718;19;19936;-74
2023/04/22 02:05:12;;;;;;;8.43;6.40;;;;;;;13.12;72.51;97648.81;7384337;19;19922;-74
2023/04/22 02:07:39;;;;;;;6.32;5.53;;;;;;;13.10;72.49;97650.00;7381033;19;19922;-74
2023/04/22 02:10:06;;;;;;;6.88;5.82;;;;;;;13.06;72.57;97652.22;7380453;19;19943;-74
2023/04/22 02:12:33;;;;;;;7.63;5.93;;;;;;;13.08;72.62;97647.53;7389321;19;19933;-74
2023/04/22 02:15:00;;;;;;;8.05;6.75;;;;;;;13.08;72.70;97646.69;7385205;19;19919;-75
2023/04/22 02:17:26;;;;;;;7.30;5.85;;;;;;;13.06;72.65;97662.84;7386458;19;20576;-74
2023/04/22 02:19:53;;;;;;;8.70;6.47;;;;;;;13.08;72.64;97655.50;7379714;19;20373;-75
2023/04/22 02:22:22;;;;;;;8.43;5.85;;;;;;;13.05;72.83;97655.88;7387130;19;19970;-75
2023/04/22 02:24:49;;;;;;;6.90;5.97;;;;;;;13.00;72.83;97655.63;7385723;19;19923;-74
2023/04/22 02:27:16;;;;;;;10.40;6.97;;;;;;;13.00;72.88;97660.09;7386322;19;19931;-75
2023/04/22 02:29:46;;;;;;;8.63;6.55;;;;;;;12.91;73.00;97668.19;7385231;19;20339;-75
2023/04/22 02:32:16;;;;;;;7.72;6.13;;;;;;;12.85;73.26;97663.66;7384577;19;19922;-74
2023/04/22 02:34:42;;;;;;;6.82;5.30;;;;;;;12.83;73.33;97663.00;7385361;19;19939;-75
2023/04/22 02:37:09;;;;;;;6.55;5.47;;;;;;;12.83;73.16;97667.50;7379208;19;19918;-75
2023/04/22 02:39:36;;;;;;;6.85;5.32;;;;;;;12.79;73.36;97677.63;7389752;19;19926;-75
2023/04/22 02:42:03;;;;;;;6.55;5.07;;;;;;;12.74;73.34;97672.06;7382396;19;19919;-75
2023/04/22 02:44:30;;;;;;;6.82;5.20;;;;;;;12.71;73.43;97675.91;7388519;19;19942;-75
2023/04/22 02:46:57;;;;;;;7.25;6.15;;;;;;;12.69;73.54;97677.97;7386439;19;19919;-75
2023/04/22 02:49:24;;;;;;;7.43;5.75;;;;;;;12.67;73.52;97668.53;7388687;19;19923;-75
2023/04/22 02:51:51;;;;;;;7.32;6.13;;;;;;;12.66;73.58;97680.97;7380137;19;19910;-75
2023/04/22 02:54:18;;;;;;;6.97;6.28;;;;;;;12.61;73.79;97680.72;7387379;19;19922;-75
2023/04/22 02:56:45;;;;;;;8.25;6.82;;;;;;;12.62;73.70;97674.41;7390415;19;20452;-75
2023/04/22 02:59:12;;;;;;;8.73;6.03;;;;;;;12.61;73.87;97682.53;7382755;19;20389;-75
2023/04/22 03:01:38;;;;;;;7.90;5.50;;;;;;;12.62;73.78;97677.06;7388296;19;19950;-75
2023/04/22 03:04:10;;;;;;;7.97;6.20;;;;;;;12.64;73.89;97680.34;7385241;19;19918;-75
2023/04/22 03:06:37;;;;;;;6.47;5.40;;;;;;;12.66;73.53;97675.66;7384101;19;19949;-74
2023/04/22 03:09:04;;;;;;;8.13;5.30;;;;;;;12.64;73.39;97677.69;7377967;19;19914;-75
2023/04/22 03:11:31;;;;;;;7.70;5.53;;;;;;;12.63;73.62;97676.03;7386542;19;19927;-75
2023/04/22 03:13:58;;;;;;;8.05;5.43;;;;;;;12.65;73.39;97670.56;7383939;19;19918;-76
2023/04/22 03:16:25;;;;;;;6.63;5.35;;;;;;;12.65;73.28;97670.56;7385213;19;19968;-75
2023/04/22 03:18:54;;;;;;;8.13;5.97;;;;;;;12.67;73.22;97669.34;7392430;19;19943;-75
2023/04/22 03:21:21;;;;;;;7.57;6.13;;;;;;;12.67;73.26;97669.34;7392618;19;19922;-75
2023/04/22 03:23:49;;;;;;;6.97;5.75;;;;;;;12.66;73.04;97662.38;7390421;19;19956;-75
2023/04/22 03:26:16;;;;;;;6.68;5.18;;;;;;;12.66;72.77;97662.38;7385992;19;19917;-75
2023/04/22 03:28:43;;;;;;;6.88;5.78;;;;;;;12.66;72.77;97662.38;7393774;19;19925;-75
2023/04/22 03:31:09;;;;;;;8.07;7.28;;;;;;;12.64;72.80;97664.44;7388327;19;20324;-75
2023/04/22 03:33:37;;;;;;;6.93;6.00;;;;;;;12.65;72.37;97665.25;7394239;19;19922;-75
2023/04/22 03:36:11;;;;;;;7.82;5.85;;;;;;;12.60;72.24;97663.13;7390248;19;19919;-75
2023/04/22 03:38:38;;;;;;;8.93;6.35;;;;;;;12.61;72.76;97663.94;7391296;19;19929;-75
2023/04/22 03:41:05;;;;;;;7.78;5.38;;;;;;;12.59;72.71;97661.50;7383709;19;19919;-75
2023/04/22 03:43:37;;;;;;;6.63;5.32;;;;;;;12.58;72.61;97662.50;7391394;19;19918;-75
2023/04/22 03:46:07;;;;;;;6.90;5.47;;;;;;;12.54;72.77;97668.38;7386808;19;20410;-75
2023/04/22 03:48:37;;;;;;;5.55;4.28;;;;;;;12.56;72.49;97672.50;7391431;19;19965;-75
2023/04/22 03:51:09;;;;;;;6.97;4.70;;;;;;;12.54;72.19;97669.19;7382670;19;19923;-74
2023/04/22 03:53:37;;;;;;;6.10;5.20;;;;;;;12.50;72.68;97663.41;7388916;19;20589;-75
2023/04/22 03:56:05;;;;;;;5.88;5.07;;;;;;;12.44;72.66;97664.16;7386624;19;20407;-74
2023/04/22 03:58:35;;;;;;;8.25;4.82;;;;;;;12.41;72.36;97658.41;7387287;19;20641;-74
2023/04/22 04:01:05;;;;;;;5.75;4.35;;;;;;;12.33;72.68;97661.19;7382873;19;19921;-74
2023/04/22 04:03:32;;;;;;;6.18;4.88;;;;;;;12.24;72.85;97663.94;7389323;19;19996;-74
2023/04/22 04:05:59;;;;;;;6.80;5.53;;;;;;;12.22;72.82;97670.41;7390618;19;19947;-74
2023/04/22 04:08:26;;;;;;;5.82;5.05;;;;;;;12.21;72.59;97668.75;7386758;19;19925;-75
2023/04/22 04:10:53;;;;;;;7.38;5.60;;;;;;;12.16;72.76;97668.47;7388010;19;20378;-74
2023/04/22 04:13:21;;;;;;;7.57;6.00;;;;;;;12.07;73.01;97670.41;7386244;19;20685;-75
2023/04/22 04:16:17;;;;;;;6.88;5.18;;;;;;;11.99;73.42;97666.00;7383529;19;19945;-74
2023/04/22 04:18:50;;;;;;;7.70;5.47;;;;;;;11.97;73.56;97653.94;7391956;19;19917;-75
2023/04/22 04:21:18;;;;;;;8.70;5.95;;;;;;;11.95;73.60;97659.41;7383696;19;19929;-75
2023/04/22 04:23:49;;;;;;;6.53;5.38;;;;;;;11.94;73.71;97660.44;7390063;19;19922;-75
2023/04/22 04:26:19;;;;;;;6.68;5.25;;;;;;;11.98;73.29;97664.38;7389178;19;19915;-74
2023/04/22 04:28:51;;;;;;;6.53;5.13;;;;;;;11.93;73.66;97665.91;7385833;19;19941;-74
2023/04/22 04:31:18;;;;;;;7.57;5.88;;;;;;;11.89;73.72;97665.44;7378131;19;19915;-75
2023/04/22 04:33:46;;;;;;;7.85;5.07;;;;;;;11.83;74.19;97653.72;7386309;19;19914;-74
2023/04/22 04:36:13;;;;;;;9.30;6.97;;;;;;;11.80;74.25;97655.94;7387628;19;20259;-75
2023/04/22 04:38:41;;;;;;;6.60;5.85;;;;;;;11.79;74.50;97664.84;7391513;19;19923;-75
2023/04/22 04:41:08;;;;;;;8.85;6.00;;;;;;;11.78;74.47;97666.69;7384329;19;19919;-74
2023/04/22 04:43:35;;;;;;;6.70;5.53;;;;;;;11.77;73.80;97667.72;7389960;19;19925;-75
2023/04/22 04:46:18;;;;;;;8.32;6.68;;;;;;;11.71;74.55;97665.75;7384772;19;20296;-75
2023/04/22 04:48:47;;;;;;;7.55;6.00;;;;;;;11.72;74.62;97663.94;7386592;19;19922;-74
2023/04/22 04:51:15;;;;;;;8.48;7.50;;;;;;;11.75;74.38;97663.59;7382541;19;20314;-75
2023/04/22 04:53:53;;;;;;;7.45;5.63;;;;;;;11.73;74.74;97670.88;7388627;19;19918;-74
2023/04/22 04:56:20;;;;;;;7.95;6.15;;;;;;;11.70;75.30;97671.25;7386602;19;19922;-75
2023/04/22 04:58:47;;;;;;;8.27;6.75;;;;;;;11.74;75.01;97662.78;7389159;19;19929;-75
2023/04/22 05:01:21;;;;;;;7.07;5.20;;;;;;;11.79;75.05;97663.03;7386178;19;19919;-75
2023/04/22 05:03:49;;;;;;;6.72;5.32;;;;;;;11.83;75.06;97674.09;7387095;19;20389;-75
2023/04/22 05:06:18;;;;;;;8.27;5.93;;;;;;;11.85;75.29;97672.09;7382413;19;19918;-75
2023/04/22 05:08:50;;;;;;;7.93;5.97;;;;;;;11.86;75.30;97666.63;7384035;19;19915;-74
2023/04/22 05:11:17;;;;;;;9.98;6.65;;;;;;;11.93;74.92;97672.06;7384477;19;19938;-75
2023/04/22 05:13:47;;;;;;;;;;;;;;;12.01;74.72;97669.31;7393360;19;19919;-74
2023/04/22 05:16:20;;;;;;;6.93;5.47;;;;;;;12.05;74.85;97657.31;7390682;19;19919;-75
2023/04/22 05:18:47;;;;;;;7.15;5.93;;;;;;;12.09;74.54;97663.09;7389830;19;19986;-75
2023/04/22 05:21:15;;;;;;;8.07;7.28;;;;;;;12.13;74.60;97658.25;7384521;19;20339;-75
2023/04/22 05:23:43;;;;;;;7.15;5.75;;;;;;;12.16;74.66;97660.53;7387344;19;19939;-75
2023/04/22 05:26:10;;;;;;;9.02;5.75;;;;;;;12.17;73.75;97660.34;7389580;19;19938;-75
2023/04/22 05:28:40;;;;;;;6.85;5.13;;;;;;;12.22;74.06;97663.28;7389741;19;19923;-76
2023/04/22 05:31:07;;;;;;;9.82;6.10;;;;;;;12.22;74.13;97659.81;7387514;19;19914;-77
2023/04/22 05:33:35;;;;;;;6.55;5.30;;;;;;;12.24;74.10;97663.94;7392130;19;19954;-75
2023/04/22 05:36:02;;;;;;;6.40;5.40;;;;;;;12.28;73.97;97667.84;7391193;19;20482;-76
2023/04/22 05:38:29;;;;;;;6.55;5.13;;;;;;;12.30;73.73;97667.66;7383895;19;19926;-75
2023/04/22 05:40:56;;;;;;;6.80;5.07;;;;;;;12.34;73.62;97678.72;7387497;19;20281;-74
2023/04/22 05:43:23;;;;;;;7.78;5.57;;;;;;;12.37;73.41;97671.22;7387869;19;19910;-75
2023/04/22 05:46:00;;;;;;;7.30;5.70;;;;;;;12.36;73.05;97669.56;7385626;19;20011;-74
2023/04/22 05:48:27;;;;;;;7.05;4.82;;;;;;;12.41;73.35;97672.50;7384535;19;19983;-76
2023/04/22 05:51:00;;;;;;;9.02;6.57;;;;;;;12.40;73.18;97662.06;7384940;19;20270;-75
2023/04/22 05:53:28;;;;;;;7.43;5.65;;;;;;;12.36;73.57;97669.56;7384158;19;19918;-75
2023/04/22 05:55:58;;;;;;;7.32;5.72;;;;;;;12.36;72.92;97676.72;7387132;19;19935;-75
2023/04/22 05:58:25;;;;;;;8.73;5.75;;;;;;;12.36;72.88;97682.84;7389062;19;20353;-75
2023/04/22 06:00:53;;;;;;;8.77;6.13;;;;;;;12.35;72.68;97675.91;7387319;19;19930;-74
2023/04/22 06:03:38;;;;;;;6.63;5.25;;;;;;;12.39;72.83;97684.31;7390709;19;19918;-75
2023/04/22 06:06:06;;;;;;;8.10;4.97;;;;;;;12.40;73.05;97688.59;7386241;19;19922;-74
2023/04/22 06:08:33;;;;;;;7.03;5.18;;;;;;;12.35;73.34;97691.81;7387710;19;19914;-74
2023/04/22 06:11:00;;;;;;;6.90;5.30;;;;;;;12.42;73.21;97697.19;7379471;19;19923;-75
2023/04/22 06:13:29;;;;;;;6.45;5.20;;;;;;;12.51;73.26;97701.41;7387570;19;19922;-75
2023/04/22 06:15:56;;;;;;;7.57;5.90;;;;;;;12.58;73.07;97693.53;7389801;19;19946;-75
2023/04/22 06:18:24;;;;;;;6.75;4.85;;;;;;;12.72;73.12;97690.84;7387446;19;21379;-74
2023/04/22 06:20:53;;;;;;;4.88;4.20;;;;;;;12.91;73.03;97686.78;7385183;19;19915;-75
2023/04/22 06:23:21;;;;;;;5.90;4.43;;;;;;;13.10;72.82;97690.66;7387242;19;19918;-76
2023/04/22 06:25:47;;;;;;;6.93;4.45;;;;;;;13.28;72.00;97692.09;7390785;19;19943;-75
2023/04/22 06:28:15;;;;;;;6.10;4.65;;;;;;;13.42;71.44;97685.88;7385489;19;19926;-75
2023/04/22 06:30:43;;;;;;;7.15;4.88;;;;;;;13.54;70.25;97684.38;7389168;19;19923;-74
2023/04/22 06:33:10;;;;;;;4.30;3.45;;;;;;;13.67;69.48;97688.97;7381401;19;19923;-75
2023/04/22 06:35:37;;;;;;;4.65;3.70;;;;;;;13.80;68.92;97683.75;7392208;19;19918;-75
2023/04/22 06:38:04;;;;;;;4.97;4.28;;;;;;;13.91;68.86;97687.72;7388189;19;19937;-75
2023/04/22 06:40:38;;;;;;;4.97;4.03;;;;;;;14.01;68.05;97698.03;7387555;19;20347;-75
2023/04/22 06:43:21;;;;;;;4.70;3.70;;;;;;;14.16;67.31;97693.41;7387475;19;19918;-76
2023/04/22 06:46:00;;;;;;;5.10;3.83;;;;;;;14.27;68.29;97698.19;7375335;19;19915;-75
2023/04/22 06:48:52;;;;;;;4.95;3.80;;;;;;;14.36;67.35;97696.19;7392681;19;19922;-75
2023/04/22 06:51:39;;;;;;;5.28;3.58;;;;;;;14.47;67.16;97692.16;7388495;19;19952;-76
2023/04/22 06:54:06;;;;;;;5.45;3.92;;;;;;;14.56;66.56;97695.47;7395828;19;19922;-75
2023/04/22 06:56:33;;;;;;;5.05;4.28;;;;;;;14.65;66.58;97692.47;7396566;19;19922;-77
2023/04/22 06:59:00;;;;;;;4.47;3.25;;;;;;;14.76;66.72;97695.59;7393610;19;19918;-75
2023/04/22 07:01:28;;;;;;;5.43;3.83;;;;;;;14.81;67.05;97693.97;7393293;19;20343;-76
2023/04/22 07:03:55;;;;;;;4.00;3.17;;;;;;;14.88;66.76;97696.66;7397127;19;19918;-75
2023/04/22 07:06:23;;;;;;;4.63;3.67;;;;;;;14.90;66.60;97692.78;7391726;19;19917;-75
2023/04/22 07:08:50;;;;;;;3.55;2.97;;;;;;;14.94;66.13;97693.19;7393488;19;19923;-76
2023/04/22 07:11:16;;;;;;;5.82;3.33;;;;;;;15.00;66.35;97691.56;7386281;19;19918;-75
2023/04/22 07:13:56;;;;;;;4.10;3.20;;;;;;;15.05;65.73;97689.13;7403810;19;19939;-75
2023/04/22 07:16:23;;;;;;;3.70;3.28;;;;;;;15.18;65.23;97691.00;7396300;19;19919;-76
2023/04/22 07:18:50;;;;;;;5.32;3.10;;;;;;;15.24;64.92;97690.19;7395485;19;19923;-75
2023/04/22 07:21:17;;;;;;;4.07;3.35;;;;;;;15.34;64.90;97688.75;7387713;19;19932;-74
2023/04/22 07:23:43;;;;;;;4.43;3.72;;;;;;;15.44;65.15;97687.56;7397821;19;19955;-74
2023/04/22 07:26:10;;;;;;;4.25;3.47;;;;;;;15.50;65.50;97689.41;7394758;19;19922;-75
2023/04/22 07:28:37;;;;;;;3.40;2.65;;;;;;;15.48;64.78;97683.44;7395307;19;19919;-75
2023/04/22 07:31:04;;;;;;;4.25;2.88;;;;;;;15.37;65.64;97679.53;7390570;19;20369;-76
2023/04/22 07:33:30;;;;;;;3.55;2.58;;;;;;;15.37;65.88;97685.69;7388749;19;19914;-76
2023/04/22 07:36:02;;;;;;;5.82;2.60;;;;;;;15.45;65.48;97674.00;7396188;19;19918;-74
2023/04/22 07:38:29;;;;;;;3.28;2.67;;;;;;;15.59;64.36;97672.19;7394533;19;19911;-77
2023/04/22 07:40:56;;;;;;;3.33;3.05;;;;;;;15.68;65.40;97678.13;7396523;19;20300;-75
2023/04/22 07:43:23;;;;;;;3.80;2.47;;;;;;;15.85;65.15;97667.88;7392253;19;20348;-76
2023/04/22 07:45:50;;;;;;;2.63;2.38;;;;;;;16.15;62.34;97668.28;7404963;19;19926;-75
2023/04/22 07:48:17;;;;;;;3.83;2.38;;;;;;;16.32;63.86;97657.97;7394253;19;19953;-76
2023/04/22 07:50:43;;;;;;;3.13;2.67;;;;;;;16.52;62.94;97657.91;7388459;19;19918;-76
2023/04/22 07:53:11;;;;;;;2.47;2.03;;;;;;;16.78;62.06;97657.00;7386271;19;19911;-75
2023/04/22 07:55:38;;;;;;;4.03;2.90;;;;;;;16.98;62.18;97660.41;7391348;19;19957;-77
2023/04/22 07:58:05;;;;;;;4.43;2.67;;;;;;;17.16;61.32;97665.00;7393612;19;19962;-76
2023/04/22 08:00:33;;;;;;;3.03;2.58;;;;;;;17.22;59.10;97669.50;7381745;19;20391;-75
2023/04/22 08:03:01;;;;;;;2.72;1.95;;;;;;;17.31;56.98;97667.38;7390748;19;19919;-74
2023/04/22 08:05:28;;;;;;;3.00;2.15;;;;;;;17.47;57.21;97664.19;7392822;19;19932;-75
2023/04/22 08:07:55;;;;;;;4.75;3.00;;;;;;;17.69;57.44;97674.50;7396853;19;19951;-77
2023/04/22 08:10:22;;;;;;;2.70;2.22;;;;;;;17.78;56.48;97675.88;7384480;19;19962;-75
2023/04/22 08:12:49;;;;;;;3.45;2.63;;;;;;;17.94;55.69;97675.34;7397553;19;19925;-73
2023/04/22 08:15:19;;;;;;;3.53;2.35;;;;;;;17.84;55.82;97675.03;7394372;19;19926;-75
2023/04/22 08:17:46;;;;;;;2.13;1.83;;;;;;;17.82;54.40;97679.78;7392781;19;19929;-75
2023/04/22 08:20:15;;;;;;;3.63;2.15;;;;;;;17.87;55.69;97682.59;7388051;19;19918;-75
2023/04/22 08:22:41;;;;;;;3.65;2.47;;;;;;;17.71;55.14;97691.16;7395176;19;19926;-75
2023/04/22 08:25:08;;;;;;;3.40;2.47;;;;;;;17.78;56.06;97686.59;7391116;19;19925;-74
2023/04/22 08:27:36;;;;;;;2.72;2.53;;;;;;;17.73;55.08;97692.56;7381516;19;20317;-76
2023/04/22 08:30:05;;;;;;;2.42;2.10;;;;;;;17.89;55.43;97691.25;7382027;19;19918;-74
2023/04/22 08:32:31;;;;;;;4.53;3.08;;;;;;;18.04;56.04;97674.84;7376303;19;19923;-75
2023/04/22 08:34:59;;;;;;;5.18;2.30;;;;;;;17.98;55.65;97681.91;7392281;19;20388;-75
2023/04/22 08:37:30;;;;;;;3.97;2.55;;;;;;;17.84;55.33;97676.88;7391288;19;19929;-75
2023/04/22 08:39:57;;;;;;;3.70;1.88;;;;;;;17.81;55.57;97683.50;7388925;19;19917;-75
2023/04/22 08:42:25;;;;;;;3.78;2.45;;;;;;;17.89;56.57;97682.41;7385239;19;19922;-74
2023/04/22 08:44:53;;;;;;;2.45;1.90;;;;;;;17.84;57.73;97683.06;7393234;19;19918;-76
2023/04/22 08:47:23;;;;;;;2.28;1.90;;;;;;;17.92;56.66;97674.75;7392073;19;19926;-75
2023/04/22 08:49:53;;;;;;;2.38;2.08;;;;;;;17.99;55.09;97686.22;7391107;19;19923;-75
2023/04/22 08:52:20;;;;;;;3.55;2.35;;;;;;;17.89;56.64;97685.06;7384427;19;19947;-75
2023/04/22 08:54:46;;;;;;;3.25;2.40;;;;;;;17.77;55.59;97679.56;7390662;19;19935;-75
2023/04/22 08:57:14;;;;;;;2.92;2.35;;;;;;;17.74;57.11;97680.00;7387004;19;19962;-75
2023/04/22 08:59:41;;;;;;;3.28;2.83;;;;;;;17.74;56.51;97680.81;7382602;19;20281;-75
2023/04/22 09:02:13;;;;;;;2.20;1.92;;;;;;;17.86;56.43;97672.16;7386926;19;19968;-75
2023/04/22 09:04:42;;;;;;;2.55;1.83;;;;;;;18.07;56.36;97671.72;7393339;19;19931;-76
2023/04/22 09:07:09;;;;;;;3.22;2.75;;;;;;;18.30;54.28;97672.94;7392776;19;20487;-75
2023/04/22 09:09:36;;;;;;;2.63;1.67;;;;;;;18.52;52.88;97666.09;7391377;19;20364;-74
2023/04/22 09:12:05;;;;;;;2.47;1.23;;;;;;;18.73;50.97;97662.13;7393140;19;20015;-75
2023/04/22 09:14:32;;;;;;;3.35;1.73;;;;;;;18.83;50.57;97654.41;7385216;19;19943;-75
2023/04/22 09:17:01;;;;;;;2.13;1.40;;;;;;;18.97;49.27;97656.91;7390402;19;19918;-76
2023/04/22 09:19:28;;;;;;;2.28;1.60;;;;;;;19.14;49.42;97655.25;7387422;19;19914;-74
2023/04/22 09:21:58;;;;;;;1.90;1.40;;;;;;;19.34;51.92;97644.22;7390903;19;19943;-75
2023/04/22 09:24:25;;;;;;;;;;;;;;;19.70;48.85;97651.31;7393596;19;19947;-75
2023/04/22 09:26:54;;;;;;;2.85;1.33;;;;;;;19.96;48.38;97649.22;7392137;19;19918;-76
2023/04/22 09:29:21;;;;;;;1.73;1.02;;;;;;;20.31;48.11;97659.94;7389843;19;20362;-74
2023/04/22 09:31:51;;;;;;;3.03;1.55;;;;;;;20.44;44.46;97655.38;7388413;19;20352;-74
2023/04/22 09:34:20;;;;;;;2.55;1.35;;;;;;;20.68;45.15;97646.22;7390933;19;19974;-74
2023/04/22 09:36:50;;;;;;;2.20;1.30;;;;;;;20.82;44.84;97638.69;7394608;19;19922;-75
2023/04/22 09:39:16;;;;;;;2.40;1.63;;;;;;;20.96;46.29;97634.66;7388653;19;19939;-76
2023/04/22 09:41:43;;;;;;;2.40;1.40;;;;;;;21.17;46.21;97632.31;7395290;19;19918;-75
2023/04/22 09:44:15;;;;;;;1.67;1.50;;;;;;;21.10;45.13;97639.75;7389097;19;19921;-76
2023/04/22 09:46:43;;;;;;;2.45;1.33;;;;;;;21.26;46.00;97633.59;7392992;19;19914;-75
2023/04/22 09:49:10;;;;;;;1.98;1.52;;;;;;;21.44;44.84;97633.38;7388765;19;19918;-75
2023/04/22 09:51:40;;;;;;;3.92;1.42;;;;;;;21.35;45.23;97636.69;7391899;19;19911;-77
2023/04/22 09:54:10;;;;;;;2.15;1.92;;;;;;;21.26;41.95;97628.19;7397605;19;19918;-75
2023/04/22 09:56:48;;;;;;;2.50;1.33;;;;;;;21.40;45.61;97629.53;7400063;19;20244;-76
2023/04/22 09:59:23;;;;;;;2.42;1.38;;;;;;;21.50;43.34;97630.78;7395465;19;19930;-76
2023/04/22 10:01:52;;;;;;;1.65;1.42;;;;;;;21.43;41.97;97628.22;7394038;19;20340;-74
2023/04/22 10:04:23;;;;;;;1.48;1.13;;;;;;;21.47;43.03;97624.81;7386952;19;20335;-74
2023/04/22 10:06:51;;;;;;;1.60;1.40;;;;;;;21.69;41.93;97629.47;7379436;19;20363;-75
2023/04/22 10:09:20;;;;;;;1.38;1.10;;;;;;;21.65;42.52;97620.25;7383250;19;19915;-74
2023/04/22 10:11:49;;;;;;;1.77;1.52;;;;;;;21.72;43.59;97617.38;7389100;19;19954;-73
2023/04/22 10:14:16;;;;;;;2.95;1.10;;;;;;;21.80;44.30;97612.44;7381315;19;19915;-73
2023/04/22 10:16:45;;;;;;;2.17;1.13;;;;;;;21.76;43.69;97616.66;7382955;19;20526;-75
2023/04/22 10:19:19;;;;;;;1.92;1.20;;;;;;;21.87;39.49;97612.25;7380666;19;19918;-73
2023/04/22 10:21:47;;;;;;;1.75;1.40;;;;;;;22.08;42.77;97611.47;7378654;19;20264;-74
2023/04/22 10:24:16;;;;;;;2.15;1.95;;;;;;;22.34;40.72;97607.25;7383045;19;20259;-74
2023/04/22 10:26:52;;;;;;;1.75;1.13;;;;;;;22.74;41.46;97608.81;7391579;19;21236;-73
2023/04/22 10:29:23;;;;;;;1.85;1.17;;;;;;;22.75;38.72;97610.44;7391061;19;19926;-74
2023/04/22 10:31:57;;;;;;;1.15;0.93;;;;;;;22.92;38.75;97609.53;7399343;19;19915;-75
2023/04/22 10:34:24;;;;;;;1.77;1.13;;;;;;;23.08;39.32;97610.53;7393222;19;19910;-74
2023/04/22 10:36:52;;;;;;;3.30;1.45;;;;;;;22.96;38.94;97603.44;7397488;19;20366;-75
2023/04/22 10:39:23;;;;;;;1.75;1.65;;;;;;;22.98;37.59;97603.97;7391982;19;20336;-74
2023/04/22 10:41:51;;;;;;;1.50;1.00;;;;;;;23.17;38.82;97598.19;7394909;19;19923;-75
2023/04/22 10:44:20;;;;;;;5.65;1.30;;;;;;;23.26;40.74;97596.69;7390743;19;20593;-74
2023/04/22 10:46:49;;;;;;;1.90;1.17;;;;;;;23.51;37.66;97595.25;7392771;19;19919;-74
2023/04/22 10:49:25;;;;;;;1.70;1.02;;;;;;;23.92;35.83;97592.88;7388216;19;19931;-74
2023/04/22 10:51:54;;;;;;;2.22;2.08;;;;;;;24.17;39.27;97584.94;7389680;19;20315;-75
2023/04/22 10:54:24;;;;;;;1.90;1.23;;;;;;;24.58;35.11;97576.19;7385322;19;19922;-74
2023/04/22 10:57:03;;;;;;;1.40;0.98;;;;;;;24.63;35.94;97576.22;7393404;19;19930;-76
2023/04/22 10:59:32;;;;;;;1.25;1.15;;;;;;;24.91;35.79;97574.94;7382974;19;20262;-76
2023/04/22 11:02:02;;;;;;;1.75;1.13;;;;;;;25.05;32.29;97565.19;7395022;19;19923;-75
2023/04/22 11:04:29;;;;;;;1.55;1.13;;;;;;;25.19;30.44;97562.78;7378959;19;19929;-75
2023/04/22 11:07:19;;;;;;;2.95;1.20;;;;;;;25.29;32.05;97564.69;7380609;19;19922;-75
2023/04/22 11:09:49;;;;;;;3.15;1.50;;;;;;;25.28;34.89;97565.78;7382438;19;19922;-75
2023/04/22 11:12:36;;;;;;;1.60;1.08;;;;;;;25.68;35.81;97559.53;7388756;19;19914;-75
2023/04/22 11:15:14;;;;;;;5.88;1.20;;;;;;;26.04;32.79;97559.47;7392929;19;19947;-75
2023/04/22 11:17:45;;;;;;;1.85;1.10;;;;;;;26.75;31.54;97558.38;7391487;19;19951;-75
2023/04/22 11:20:16;;;;;;;1.60;0.85;;;;;;;27.22;31.16;97557.00;7387065;19;19927;-75
2023/04/22 11:22:45;;;;;;;2.55;1.15;;;;;;;27.89;32.61;97553.72;7384140;19;19963;-76
2023/04/22 11:25:13;;;;;;;1.70;0.63;;;;;;;28.44;28.10;97557.72;7386068;19;20410;-75
2023/04/22 11:27:42;;;;;;;1.73;0.80;;;;;;;28.22;28.66;97551.97;7386216;19;19926;-75
2023/04/22 11:30:14;;;;;;;1.48;0.90;;;;;;;27.39;26.26;97553.88;7382484;19;19922;-75
2023/04/22 11:32:44;;;;;;;2.15;1.00;;;;;;;27.04;29.29;97547.63;7387081;19;20499;-75
2023/04/22 11:35:12;;;;;;;;;;;;;;;26.89;26.87;97550.44;7393812;19;19925;-75
2023/04/22 11:37:48;;;;;;;2.17;0.98;;;;;;;26.92;27.68;97547.16;7383180;19;20339;-75
2023/04/22 11:40:17;;;;;;;1.50;1.02;;;;;;;26.83;28.33;97540.69;7382405;19;19943;-74
2023/04/22 11:42:56;;;;;;;1.08;0.98;;;;;;;27.19;28.98;97541.28;7388665;19;20306;-75
2023/04/22 11:45:24;;;;;;;1.13;0.85;;;;;;;27.45;27.23;97539.16;7384786;19;19914;-77